Time;durP1;ratioP1;P1;durP2;ratioP2;P2;SDS_P1;SDS_P2;PMS_P1;PMS_P2;Temp;Humidity;BMP_temperature;BMP_pressure;BME280_temperature;BME280_humidity;BME280_pressure;Samples;Min_cycle;Max_cycle;Signal;HPM_P1;HPM_P2
2023/01/06 00:00:37;;;;;;;;;27.75;27.50;;;;;13.57;74.01;-19573.53;4874721;28;45486;-89
2023/01/06 00:03:02;;;;;;;;;15.25;15.25;;;;;14.09;74.25;-19587.22;4880271;29;46897;-90
2023/01/06 00:05:28;;;;;;;;;8.50;8.50;;;;;14.36;74.13;-19594.50;4881290;28;47148;-92
2023/01/06 00:07:54;;;;;;;;;21.75;21.75;;;;;13.65;74.38;-19575.69;4890045;29;45532;-90
2023/01/06 00:10:20;;;;;;;;;12.00;10.50;;;;;14.42;74.25;-19595.97;4886298;28;45683;-91
2023/01/06 00:12:47;;;;;;;;;13.50;13.50;;;;;13.83;74.33;-19580.38;4900260;28;45547;-91
2023/01/06 00:15:14;;;;;;;;;14.25;14.25;;;;;14.16;73.99;-19589.13;4913777;28;45521;-91
2023/01/06 00:17:40;;;;;;;;;18.75;18.75;;;;;14.40;74.64;-19595.44;4908799;28;45531;-91
2023/01/06 00:20:06;;;;;;;;;9.50;9.50;;;;;14.13;74.43;-19588.31;4891224;29;45481;-90
2023/01/06 00:22:32;;;;;;;;;21.25;21.25;;;;;13.96;74.49;-19583.75;4883386;29;45469;-90
2023/01/06 00:24:57;;;;;;;;;10.00;9.25;;;;;13.71;74.53;-19577.28;4889212;28;48378;-90
2023/01/06 00:27:22;;;;;;;;;28.00;28.00;;;;;13.16;74.69;-19562.91;4902576;28;45432;-90
2023/01/06 00:29:49;;;;;;;;;9.25;9.25;;;;;13.55;74.41;-19573.13;4900569;28;45395;-90
2023/01/06 00:32:15;;;;;;;;;18.75;18.75;;;;;13.67;74.35;-19576.34;4884054;29;45478;-96
2023/01/06 00:34:41;;;;;;;;;37.50;34.75;;;;;13.67;74.23;-19576.34;4886826;28;47226;-96
2023/01/06 00:37:06;;;;;;;;;34.25;32.50;;;;;13.41;74.63;-19569.50;4889357;29;45548;-96
2023/01/06 00:39:32;;;;;;;;;40.25;37.00;;;;;13.85;74.81;-19581.06;4888666;28;45372;-96
2023/01/06 00:42:03;;;;;;;;;9.50;9.50;;;;;13.43;74.80;-19569.91;4887416;29;45521;-96
2023/01/06 00:44:34;;;;;;;;;35.00;33.25;;;;;12.95;74.67;-19557.25;4885920;29;47411;-96
2023/01/06 00:47:00;;;;;;;;;36.75;34.75;;;;;13.67;74.60;-19576.34;4889011;29;45510;-96
2023/01/06 00:49:26;;;;;;;;;41.25;37.50;;;;;14.41;74.51;-19595.69;4899670;29;45536;-96
2023/01/06 00:51:52;;;;;;;;;46.00;41.25;;;;;12.87;74.65;-19555.22;4884778;29;45864;-96
2023/01/06 00:54:18;;;;;;;;;16.50;16.50;;;;;14.42;74.70;-19595.97;4888244;29;47299;-96
2023/01/06 00:56:46;;;;;;;;;36.25;34.00;;;;;14.02;74.83;-19585.34;4893295;28;45434;-96
2023/01/06 00:59:14;;;;;;;;;34.75;33.50;;;;;13.98;74.73;-19584.28;4880373;29;45439;-96
2023/01/06 01:01:41;;;;;;;;;14.50;14.50;;;;;13.84;74.88;-19580.66;4927962;28;45491;-96
2023/01/06 01:04:07;;;;;;;;;54.00;46.00;;;;;12.83;75.10;-19554.28;4895849;28;48354;-96
2023/01/06 01:06:33;;;;;;;;;57.33;48.33;;;;;14.32;75.17;-19593.28;4902046;28;45372;-96
2023/01/06 01:09:00;;;;;;;;;32.67;29.00;;;;;13.39;75.43;-19568.81;4903891;28;45394;-96
2023/01/06 01:17:29;;;;;;;;;63.00;52.67;;;;;13.22;75.89;-19564.38;4936138;28;45550;-95
2023/01/06 01:19:56;;;;;;;;;61.33;51.33;;;;;13.71;76.31;-19577.28;4934805;28;45996;-93
2023/01/06 01:25:56;;;;;;;;;61.33;51.67;;;;;12.73;76.43;-19551.59;4931045;28;45425;-96
2023/01/06 01:28:22;;;;;;;;;64.00;53.50;;;;;13.84;76.47;-19580.78;4936370;28;45662;-94
2023/01/06 01:31:28;;;;;;;;;28.00;28.00;;;;;14.34;77.05;-19593.94;4938925;28;45436;-95
2023/01/06 01:37:52;;;;;;;;;55.67;46.67;;;;;14.27;77.38;-19592.06;4938588;28;45737;-95
2023/01/06 01:40:30;;;;;;;;;62.33;51.67;;;;;13.10;77.57;-19561.41;4937184;28;45332;-96
2023/01/06 01:42:56;;;;;;;;;59.33;49.33;;;;;13.16;77.52;-19562.75;4935114;28;45473;-96
2023/01/06 01:52:17;;;;;;;;;43.00;38.75;;;;;13.75;78.59;-19578.22;4891693;29;45483;-96
2023/01/06 01:54:44;;;;;;;;;34.50;33.00;;;;;12.91;78.68;-19556.31;4879815;29;45321;-96
2023/01/06 02:09:56;;;;;;;;;48.25;40.75;;;;;13.61;78.20;-19574.59;4935332;23;58559;-96
2023/01/06 02:12:22;;;;;;;;;57.00;48.00;;;;;14.05;77.98;-19586.28;4889982;28;47326;-96
2023/01/06 02:14:47;;;;;;;;;58.00;49.00;;;;;14.23;77.78;-19590.88;4917741;28;45468;-96
2023/01/06 02:17:34;;;;;;;;;53.33;45.00;;;;;14.24;78.23;-19591.25;4897854;28;45493;-96
2023/01/06 02:20:18;;;;;;;;;57.00;48.33;;;;;14.24;77.95;-19591.13;4903588;28;45448;-96
2023/01/06 02:23:04;;;;;;;;;63.00;52.67;;;;;14.24;77.98;-19591.13;4903549;28;47410;-96
2023/01/06 02:25:48;;;;;;;;;59.00;49.00;;;;;14.24;77.94;-19591.13;4925727;28;46140;-96
2023/01/06 02:28:39;;;;;;;;;62.33;52.00;;;;;14.06;77.73;-19586.44;4909329;28;45405;-96
2023/01/06 02:31:32;;;;;;;;;65.00;54.75;;;;;14.25;77.57;-19591.41;4887132;28;45425;-96
2023/01/06 02:34:12;;;;;;;;;61.67;51.67;;;;;14.25;77.36;-19591.41;4893768;28;47446;-96
2023/01/06 02:36:43;;;;;;;;;61.00;51.00;;;;;14.27;77.64;-19592.06;4917870;28;45731;-95
2023/01/06 02:39:36;;;;;;;;;63.00;53.33;;;;;14.25;77.38;-19591.41;4919217;28;45328;-96
2023/01/06 02:42:12;;;;;;;;;62.33;51.67;;;;;14.26;77.34;-19591.66;4911548;28;45401;-96
2023/01/06 02:44:54;;;;;;;;;62.67;51.67;;;;;14.17;77.39;-19589.38;4913494;28;47047;-96
2023/01/06 02:47:25;;;;;;;;;59.67;50.00;;;;;14.22;77.32;-19590.59;4903581;28;45448;-96
2023/01/06 02:50:07;;;;;;;;;59.33;50.00;;;;;13.86;77.43;-19581.31;4905228;28;45620;-96
2023/01/06 02:52:45;;;;;;;;;62.67;51.67;;;;;13.54;77.54;-19572.84;4898479;28;45306;-96
2023/01/06 02:55:37;;;;;;;;;62.50;52.75;;;;;13.98;77.56;-19584.41;4921329;28;47318;-96
2023/01/06 02:58:17;;;;;;;;;62.00;52.00;;;;;14.06;77.63;-19586.56;4919921;28;45352;-94
2023/01/06 03:00:50;;;;;;;;;60.00;50.67;;;;;14.01;77.41;-19585.09;4898409;28;45574;-94
2023/01/06 03:08:29;;;;;;;;;61.00;51.75;;;;;14.20;77.57;-19590.06;5304597;23;45397;-89
2023/01/06 03:10:58;;;;;;;;;65.33;54.67;;;;;13.72;77.70;-19577.69;4882863;29;45622;-88
2023/01/06 03:13:45;;;;;;;;;63.00;53.00;;;;;13.82;77.66;-19580.13;4880315;29;45619;-89
2023/01/06 03:16:11;;;;;;;;;56.67;47.67;;;;;14.20;77.46;-19590.19;4879347;28;47097;-88
2023/01/06 03:18:39;;;;;;;;;62.00;52.00;;;;;14.14;77.90;-19588.72;4893711;29;45685;-88
2023/01/06 03:21:10;;;;;;;;;64.67;54.00;;;;;14.04;77.86;-19586.03;4903001;28;45445;-88
2023/01/06 03:23:38;;;;;;;;;62.00;51.67;;;;;14.24;77.65;-19591.13;4886871;28;45591;-87
2023/01/06 03:26:04;;;;;;;;;63.33;53.00;;;;;13.73;77.46;-19577.84;4897688;28;46473;-87
2023/01/06 03:28:30;;;;;;;;;62.25;52.25;;;;;13.74;77.98;-19578.09;4894218;28;45522;-88
2023/01/06 03:31:26;;;;;;;;;62.33;51.67;;;;;14.23;77.64;-19590.88;4897953;28;45761;-89
2023/01/06 03:34:02;;;;;;;;;64.67;54.00;;;;;14.21;77.60;-19590.31;4883573;29;46493;-95
2023/01/06 03:36:47;;;;;;;;;60.67;51.33;;;;;13.87;77.42;-19581.59;4897828;28;47366;-93
2023/01/06 03:39:32;;;;;;;;;58.00;49.00;;;;;14.18;77.88;-19589.66;4881246;28;45704;-95
2023/01/06 03:46:00;;;;;;;;;57.33;48.67;;;;;14.20;78.16;-19590.19;4895045;28;45293;-95
2023/01/06 03:48:50;;;;;;;;;61.00;51.33;;;;;14.07;77.63;-19586.69;4885245;29;47346;-94
2023/01/06 03:51:53;;;;;;;;;61.00;51.00;;;;;14.14;77.62;-19588.56;4881483;29;45558;-95
2023/01/06 03:54:42;;;;;;;;;58.00;48.00;;;;;14.09;77.95;-19587.38;4886694;28;45578;-95
2023/01/06 03:57:21;;;;;;;;;55.00;47.00;;;;;14.08;78.32;-19586.97;4885560;28;45389;-95
2023/01/06 03:59:53;;;;;;;;;58.67;49.00;;;;;14.06;78.00;-19586.56;4882322;29;48348;-96
2023/01/06 04:02:20;;;;;;;;;57.00;48.33;;;;;13.61;78.11;-19574.59;4886040;28;45544;-96
2023/01/06 04:05:01;;;;;;;;;47.33;41.67;;;;;13.70;78.69;-19577.03;4881389;29;45365;-96
2023/01/06 04:07:27;;;;;;;;;48.33;42.00;;;;;14.07;78.49;-19586.69;4878370;29;45443;-96
2023/01/06 04:09:52;;;;;;;;;44.75;40.25;;;;;14.07;78.55;-19586.69;4887301;28;47048;-96
2023/01/06 04:15:02;;;;;;;;;41.25;37.75;;;;;13.71;78.16;-19577.44;4901895;28;45497;-94
2023/01/06 04:17:27;;;;;;;;;42.00;38.25;;;;;14.05;78.20;-19586.16;4885568;28;45599;-95
2023/01/06 04:19:52;;;;;;;;;44.25;38.50;;;;;13.71;78.54;-19577.28;4893227;28;47577;-96
2023/01/06 04:22:18;;;;;;;;;36.75;34.50;;;;;14.06;78.01;-19586.44;4898506;29;45373;-96
2023/01/06 04:24:43;;;;;;;;;40.50;37.25;;;;;13.62;78.37;-19574.88;4889954;28;45038;-96
2023/01/06 04:27:08;;;;;;;;;42.00;38.00;;;;;13.81;78.41;-19579.97;4885671;29;45485;-95
2023/01/06 04:29:34;;;;;;;;;41.25;37.75;;;;;13.96;78.08;-19583.88;4889029;29;46886;-96
2023/01/06 04:31:59;;;;;;;;;54.33;45.67;;;;;13.63;78.03;-19575.16;4889187;28;45391;-87
2023/01/06 04:34:25;;;;;;;;;53.67;45.33;;;;;13.57;78.29;-19573.66;4900615;28;45437;-87
2023/01/06 04:36:50;;;;;;;;;46.75;41.50;;;;;13.91;78.36;-19582.53;4897290;28;45572;-87
2023/01/06 04:39:15;;;;;;;;;43.75;39.25;;;;;14.14;78.09;-19588.72;4902496;28;46927;-87
2023/01/06 04:41:41;;;;;;;;;46.75;41.50;;;;;12.97;77.76;-19557.78;4909133;28;45503;-88
2023/01/06 04:44:06;;;;;;;;;53.25;44.75;;;;;13.46;78.21;-19570.69;4897810;28;45837;-88
2023/01/06 04:46:31;;;;;;;;;44.00;39.50;;;;;13.63;78.46;-19575.16;4899402;28;45879;-88
2023/01/06 04:48:57;;;;;;;;;45.25;40.75;;;;;13.41;77.99;-19569.34;4885717;28;47369;-87
2023/01/06 04:51:22;;;;;;;;;44.00;39.25;;;;;13.78;78.35;-19579.16;4910699;28;45410;-89
2023/01/06 04:53:47;;;;;;;;;36.50;34.50;;;;;13.44;78.31;-19570.16;4911166;28;45327;-87
2023/01/06 04:56:13;;;;;;;;;42.25;38.00;;;;;14.18;78.50;-19589.53;4902511;28;45611;-87
2023/01/06 04:58:38;;;;;;;;;41.00;37.50;;;;;13.57;78.14;-19573.66;4899358;28;46146;-88
2023/01/06 05:01:07;;;;;;;;;40.00;37.00;;;;;13.34;78.10;-19567.59;4899985;28;45561;-87
2023/01/06 05:03:34;;;;;;;;;46.00;40.75;;;;;13.81;78.10;-19579.97;4899129;28;45487;-87
2023/01/06 05:06:03;;;;;;;;;37.25;34.75;;;;;13.87;78.47;-19581.47;4901293;28;45850;-88
2023/01/06 05:08:30;;;;;;;;;45.00;40.25;;;;;13.85;78.09;-19580.91;4893815;28;46376;-87
2023/01/06 05:11:03;;;;;;;;;39.00;35.75;;;;;14.13;78.41;-19588.31;4881702;29;45579;-88
2023/01/06 05:13:30;;;;;;;;;36.75;34.25;;;;;14.12;78.60;-19588.19;4896785;28;45385;-87
2023/01/06 05:15:56;;;;;;;;;36.50;34.25;;;;;14.14;78.68;-19588.56;4891032;28;45556;-87
2023/01/06 05:18:21;;;;;;;;;36.50;33.00;;;;;13.65;78.86;-19575.69;4905664;28;46336;-88
2023/01/06 05:20:52;;;;;;;;;30.25;29.25;;;;;14.14;78.95;-19588.56;4900706;28;45649;-88
2023/01/06 05:23:18;;;;;;;;;31.00;30.00;;;;;14.16;78.72;-19589.13;4881985;29;45596;-88
2023/01/06 05:25:43;;;;;;;;;31.00;29.75;;;;;13.93;78.54;-19583.06;4900223;28;45524;-87
2023/01/06 05:28:08;;;;;;;;;32.75;31.75;;;;;13.65;78.79;-19575.81;4882400;29;46269;-88
2023/01/06 05:30:34;;;;;;;;;31.75;30.75;;;;;13.64;79.09;-19575.53;4893603;28;45579;-88
2023/01/06 05:32:59;;;;;;;;;36.00;33.25;;;;;14.06;78.79;-19586.44;4883679;28;45547;-88
2023/01/06 05:35:24;;;;;;;;;39.75;36.00;;;;;13.96;78.74;-19583.88;4899455;28;45414;-88
2023/01/06 05:37:53;;;;;;;;;36.25;34.00;;;;;14.10;78.79;-19587.50;4897648;28;45486;-88
2023/01/06 05:40:18;;;;;;;;;37.00;34.75;;;;;13.19;79.22;-19563.56;4898659;28;45459;-88
2023/01/06 05:42:44;;;;;;;;;38.50;35.75;;;;;13.74;78.61;-19578.09;4894465;29;45466;-88
2023/01/06 05:45:10;;;;;;;;;36.25;34.50;;;;;14.29;78.96;-19592.47;4879158;29;45488;-88
2023/01/06 05:47:35;;;;;;;;;37.00;34.50;;;;;13.76;78.97;-19578.63;4900871;28;46808;-88
2023/01/06 05:50:01;;;;;;;;;34.25;32.50;;;;;13.88;78.91;-19581.72;4908871;28;45612;-88
2023/01/06 05:52:26;;;;;;;;;33.25;31.75;;;;;13.72;78.76;-19577.56;4898360;28;45570;-87
2023/01/06 05:54:52;;;;;;;;;39.75;36.75;;;;;13.64;78.86;-19575.41;4880897;29;45276;-88
2023/01/06 05:57:17;;;;;;;;;33.75;32.25;;;;;14.23;78.99;-19591.00;4896205;28;48112;-87
2023/01/06 05:59:42;;;;;;;;;29.00;28.25;;;;;13.26;78.26;-19565.47;4901435;28;45437;-88
2023/01/06 06:02:08;;;;;;;;;35.00;33.25;;;;;14.29;78.32;-19592.47;4883665;28;46969;-90
2023/01/06 06:04:33;;;;;;;;;36.50;34.25;;;;;14.00;78.35;-19584.94;4880733;29;45751;-87
2023/01/06 06:06:58;;;;;;;;;37.00;35.00;;;;;13.47;78.37;-19570.97;4900307;28;46432;-87
2023/01/06 06:09:24;;;;;;;;;40.50;37.50;;;;;13.17;78.53;-19563.03;4897262;28;45742;-87
2023/01/06 06:11:50;;;;;;;;;31.50;30.25;;;;;13.79;78.46;-19579.31;4894958;28;45432;-87
2023/01/06 06:14:16;;;;;;;;;31.75;30.75;;;;;14.03;78.39;-19585.63;4879158;29;45492;-87
2023/01/06 06:16:41;;;;;;;;;30.75;30.00;;;;;13.77;78.92;-19578.78;4907126;28;46388;-87
2023/01/06 06:19:07;;;;;;;;;31.75;30.00;;;;;13.41;78.49;-19569.34;4896704;28;45457;-87
2023/01/06 06:21:32;;;;;;;;;30.50;29.75;;;;;14.26;78.52;-19591.81;4899378;28;45443;-87
2023/01/06 06:23:58;;;;;;;;;32.50;31.25;;;;;14.02;78.76;-19585.50;4899521;28;45400;-89
2023/01/06 06:26:25;;;;;;;;;36.50;34.25;;;;;14.13;78.39;-19588.31;4886051;28;47471;-90
2023/01/06 06:28:50;;;;;;;;;40.25;37.25;;;;;13.78;78.17;-19579.16;4894965;29;45487;-90
2023/01/06 06:31:19;;;;;;;;;42.50;38.50;;;;;13.38;77.93;-19568.56;4899697;29;45364;-92
2023/01/06 06:33:44;;;;;;;;;45.50;40.75;;;;;12.98;78.08;-19558.06;4906373;28;45529;-90
2023/01/06 06:36:14;;;;;;;;;40.75;36.50;;;;;14.24;78.39;-19591.13;4891952;29;45456;-88
2023/01/06 06:38:40;;;;;;;;;42.00;38.25;;;;;13.97;78.75;-19584.00;4876981;29;47114;-88
2023/01/06 06:41:05;;;;;;;;;36.50;34.25;;;;;13.76;78.45;-19578.63;4878308;29;45532;-89
2023/01/06 06:43:31;;;;;;;;;31.00;30.00;;;;;13.31;78.52;-19566.81;4902466;28;45887;-89
2023/01/06 06:45:57;;;;;;;;;36.75;34.75;;;;;14.13;78.39;-19588.44;4892365;28;46727;-90
2023/01/06 06:48:22;;;;;;;;;51.00;44.00;;;;;14.02;77.96;-19585.50;4887368;29;45435;-90
2023/01/06 06:51:00;;;;;;;;;47.75;42.00;;;;;14.08;78.41;-19586.97;4907706;28;45396;-92
2023/01/06 06:53:26;;;;;;;;;41.00;37.50;;;;;13.82;78.48;-19580.25;4910189;28;45488;-90
2023/01/06 06:55:51;;;;;;;;;42.75;39.00;;;;;13.41;78.30;-19569.34;4910565;28;45571;-89
2023/01/06 06:58:17;;;;;;;;;41.25;37.75;;;;;14.36;78.39;-19594.34;4911146;28;45386;-90
2023/01/06 07:00:42;;;;;;;;;45.75;40.00;;;;;13.24;78.05;-19564.91;4880809;29;45628;-90
2023/01/06 07:03:08;;;;;;;;;52.50;44.25;;;;;13.66;77.72;-19576.09;4891494;29;45522;-89
2023/01/06 07:05:33;;;;;;;;;53.33;44.67;;;;;14.05;77.88;-19586.28;4904040;28;45490;-90
2023/01/06 07:07:58;;;;;;;;;46.25;41.00;;;;;13.67;78.02;-19576.34;4891759;28;45843;-90
2023/01/06 07:10:24;;;;;;;;;45.75;41.00;;;;;13.76;78.15;-19578.63;4910783;28;45501;-90
2023/01/06 07:12:49;;;;;;;;;49.75;43.50;;;;;13.88;78.34;-19581.72;4903784;28;45503;-90
2023/01/06 07:15:15;;;;;;;;;50.00;42.00;;;;;14.36;78.14;-19594.50;4883964;28;46106;-90
2023/01/06 07:17:40;;;;;;;;;44.50;39.75;;;;;14.23;78.52;-19590.88;4900135;28;45555;-89
2023/01/06 07:20:06;;;;;;;;;53.00;44.67;;;;;13.83;77.94;-19580.50;4899092;28;45561;-90
2023/01/06 07:22:35;;;;;;;;;47.25;41.75;;;;;14.19;77.98;-19589.94;4908433;28;45550;-89
2023/01/06 07:25:00;;;;;;;;;44.00;39.50;;;;;13.77;78.15;-19578.78;4906373;28;46296;-91
2023/01/06 07:27:25;;;;;;;;;22.50;22.50;;;;;14.01;77.74;-19585.22;4884584;29;45580;-89
2023/01/06 07:29:51;;;;;;;;;14.75;14.75;;;;;14.00;77.60;-19584.94;4910586;28;45550;-89
2023/01/06 07:32:16;;;;;;;;;49.75;43.50;;;;;14.50;78.23;-19597.97;4902317;28;47216;-89
2023/01/06 07:34:41;;;;;;;;;14.50;14.50;;;;;13.81;77.74;-19579.84;4900481;28;45491;-90
2023/01/06 07:37:07;;;;;;;;;10.25;10.25;;;;;13.76;77.93;-19578.63;4897437;29;45405;-89
2023/01/06 07:39:33;;;;;;;;;14.50;14.50;;;;;13.68;77.74;-19576.63;4911634;28;45594;-90
2023/01/06 07:41:58;;;;;;;;;11.75;11.75;;;;;14.35;78.31;-19594.09;4907029;28;45468;-90
2023/01/06 07:44:24;;;;;;;;;12.00;12.00;;;;;14.14;78.33;-19588.56;4902016;28;46534;-89
2023/01/06 07:46:49;;;;;;;;;12.75;12.75;;;;;14.56;77.88;-19599.72;4882803;29;46089;-89
2023/01/06 07:49:15;;;;;;;;;43.50;39.00;;;;;14.36;78.50;-19594.34;4897155;28;45732;-88
2023/01/06 07:51:40;;;;;;;;;47.75;41.75;;;;;14.38;77.71;-19594.91;4902589;28;45523;-89
2023/01/06 07:54:06;;;;;;;;;44.25;39.50;;;;;13.68;77.98;-19576.50;4891364;28;46367;-89
2023/01/06 07:56:31;;;;;;;;;53.33;45.33;;;;;14.48;77.82;-19597.56;4902167;28;45409;-89
2023/01/06 07:58:56;;;;;;;;;16.00;16.00;;;;;13.93;77.98;-19583.22;4899398;28;45374;-89
2023/01/06 08:01:25;;;;;;;;;50.67;43.67;;;;;14.38;77.98;-19594.75;4899296;29;45598;-89
2023/01/06 08:03:50;;;;;;;;;13.00;13.00;;;;;14.02;78.25;-19585.50;4896581;29;45548;-89
2023/01/06 08:06:16;;;;;;;;;12.75;12.75;;;;;14.30;77.91;-19592.88;4899607;28;45693;-89
2023/01/06 08:08:42;;;;;;;;;16.00;16.00;;;;;13.61;77.89;-19574.75;4913562;28;45510;-89
2023/01/06 08:11:10;;;;;;;;;28.50;28.00;;;;;14.30;77.77;-19592.88;4920929;28;45518;-90
2023/01/06 08:13:36;;;;;;;;;18.75;18.75;;;;;13.75;77.94;-19578.22;4920559;28;46253;-92
2023/01/06 08:16:07;;;;;;;;;22.75;22.75;;;;;14.56;77.72;-19599.59;4903997;28;45517;-89
2023/01/06 08:18:32;;;;;;;;;22.75;21.50;;;;;14.29;77.86;-19592.47;4923755;28;45818;-91
2023/01/06 08:21:09;;;;;;;;;23.25;23.25;;;;;14.29;78.30;-19592.47;4927211;28;45489;-92
2023/01/06 08:23:35;;;;;;;;;23.25;23.25;;;;;14.39;77.99;-19595.03;4898445;28;48752;-92
2023/01/06 08:26:05;;;;;;;;;17.50;17.50;;;;;14.47;78.05;-19597.31;4919629;28;45700;-89
2023/01/06 08:28:31;;;;;;;;;20.75;20.75;;;;;14.28;78.47;-19592.19;4920588;28;45465;-93
2023/01/06 08:30:57;;;;;;;;;28.25;26.75;;;;;14.20;78.42;-19590.06;4901096;28;45638;-93
2023/01/06 08:33:25;;;;;;;;;22.50;20.75;;;;;14.49;78.88;-19597.84;4903932;28;47434;-92
2023/01/06 08:35:58;;;;;;;;;21.00;21.00;;;;;14.52;78.47;-19598.53;4902087;28;45509;-93
2023/01/06 08:38:24;;;;;;;;;26.33;26.33;;;;;14.45;78.49;-19596.78;4899487;28;45613;-94
2023/01/06 08:40:54;;;;;;;;;17.25;17.25;;;;;14.51;78.51;-19598.25;4900069;28;45403;-92
2023/01/06 08:43:20;;;;;;;;;18.00;18.00;;;;;13.97;78.57;-19584.16;4899995;28;47551;-91
2023/01/06 08:45:45;;;;;;;;;23.75;23.75;;;;;14.30;78.67;-19592.75;4906224;28;45768;-92
2023/01/06 08:48:10;;;;;;;;;23.00;21.75;;;;;13.93;78.25;-19583.06;4908147;28;46438;-91
2023/01/06 08:50:40;;;;;;;;;25.25;25.25;;;;;13.75;78.35;-19578.22;4902803;28;45561;-91
2023/01/06 08:53:05;;;;;;;;;27.33;27.00;;;;;14.56;78.08;-19599.59;4900072;28;47640;-91
2023/01/06 08:55:31;;;;;;;;;26.33;26.33;;;;;14.56;78.07;-19599.59;4903286;28;46123;-92
2023/01/06 08:57:56;;;;;;;;;29.00;27.67;;;;;14.55;78.02;-19599.47;4900941;28;45515;-93
2023/01/06 09:00:22;;;;;;;;;28.67;28.67;;;;;14.38;78.30;-19594.75;4914172;28;45363;-93
2023/01/06 09:02:47;;;;;;;;;30.00;30.00;;;;;14.28;77.95;-19592.34;4918929;28;47893;-90
2023/01/06 09:05:13;;;;;;;;;29.00;27.67;;;;;14.57;78.36;-19599.88;4912789;28;45803;-89
2023/01/06 09:07:38;;;;;;;;;28.67;28.67;;;;;14.29;78.24;-19592.47;4911395;28;45550;-89
2023/01/06 09:10:04;;;;;;;;;28.33;28.33;;;;;14.11;78.47;-19587.78;4901596;28;45443;-89
2023/01/06 09:12:29;;;;;;;;;32.00;31.67;;;;;14.57;78.06;-19600.00;4899048;28;45757;-89
2023/01/06 09:14:55;;;;;;;;;27.33;27.33;;;;;13.42;78.08;-19569.75;4894592;28;45919;-89
2023/01/06 09:17:20;;;;;;;;;28.67;28.67;;;;;14.06;78.22;-19586.56;4896865;28;45585;-93
2023/01/06 09:19:45;;;;;;;;;28.00;28.00;;;;;13.87;78.12;-19581.47;4880620;28;45537;-89
2023/01/06 09:22:11;;;;;;;;;26.67;26.67;;;;;14.25;78.11;-19591.53;4881443;29;47100;-88
2023/01/06 09:24:36;;;;;;;;;21.25;21.25;;;;;14.26;78.47;-19591.66;4881535;28;45878;-89
2023/01/06 09:27:02;;;;;;;;;21.50;17.25;;;;;14.03;78.43;-19585.63;4898588;28;45457;-91
2023/01/06 09:29:27;;;;;;;;;18.00;18.00;;;;;14.33;78.73;-19593.56;4882681;29;45716;-89
2023/01/06 09:34:28;;;;;;;;;13.50;13.50;;;;;14.69;78.87;-19602.97;5087775;23;45713;-93
2023/01/06 09:36:53;;;;;;;;;15.50;15.50;;;;;14.62;78.83;-19601.22;4920976;28;46566;-91
2023/01/06 09:39:19;;;;;;;;;14.25;12.25;;;;;14.32;78.68;-19593.28;4936219;28;45417;-95
2023/01/06 09:41:55;;;;;;;;;21.75;21.25;;;;;14.78;78.52;-19605.50;4918949;28;47248;-94
2023/01/06 09:44:31;;;;;;;;;20.00;20.00;;;;;14.77;78.69;-19605.09;4915336;28;46036;-91
2023/01/06 09:46:58;;;;;;;;;19.75;19.75;;;;;14.30;78.78;-19592.75;4914740;28;45554;-93
2023/01/06 09:49:36;;;;;;;;;20.25;20.25;;;;;14.40;78.80;-19595.28;4939288;28;45566;-95
2023/01/06 09:52:52;;;;;;;;;29.00;28.00;;;;;14.80;78.52;-19605.91;4934411;28;46400;-96
2023/01/06 09:55:31;;;;;;;;;18.75;18.75;;;;;14.46;78.35;-19597.03;4879126;29;45482;-92
2023/01/06 09:58:02;;;;;;;;;26.67;26.67;;;;;14.59;78.61;-19600.28;4879832;28;45495;-92
2023/01/06 10:00:28;;;;;;;;;25.75;24.25;;;;;14.86;78.48;-19607.50;4892640;28;45564;-89
2023/01/06 10:02:55;;;;;;;;;27.75;25.75;;;;;14.66;78.12;-19602.16;4890491;28;46289;-91
2023/01/06 10:05:51;;;;;;;;;29.67;29.67;;;;;15.04;77.89;-19612.22;4890475;28;45466;-91
2023/01/06 10:08:38;;;;;;;;;25.00;24.67;;;;;15.03;77.71;-19611.94;4879978;29;45545;-90
2023/01/06 10:11:14;;;;;;;;;31.33;31.33;;;;;15.06;77.84;-19612.75;4893560;29;45616;-89
2023/01/06 10:14:01;;;;;;;;;27.00;27.00;;;;;14.81;78.00;-19606.19;4895541;28;46123;-91
2023/01/06 10:16:48;;;;;;;;;37.67;34.00;;;;;15.14;77.54;-19614.75;4893354;28;46217;-89
2023/01/06 10:19:29;;;;;;;;;28.00;28.00;;;;;14.80;77.44;-19605.78;4889600;28;45355;-93
2023/01/06 10:22:00;;;;;;;;;33.33;32.67;;;;;15.15;77.38;-19615.03;4878468;29;45539;-92
2023/01/06 10:24:41;;;;;;;;;32.00;31.33;;;;;15.14;77.53;-19614.91;4898187;29;45588;-92
2023/01/06 10:27:15;;;;;;;;;30.67;30.33;;;;;15.09;77.44;-19613.56;4882257;29;45369;-91
2023/01/06 10:29:42;;;;;;;;;30.33;30.33;;;;;14.84;77.77;-19606.84;4893532;28;45445;-92
2023/01/06 10:32:15;;;;;;;;;29.33;29.00;;;;;14.87;77.26;-19607.78;4912056;28;45644;-91
2023/01/06 10:34:45;;;;;;;;;32.67;31.00;;;;;14.90;77.67;-19608.59;4902063;28;48270;-91
2023/01/06 10:37:19;;;;;;;;;33.67;33.33;;;;;14.88;77.74;-19608.06;4897968;28;45491;-94
2023/01/06 10:39:50;;;;;;;;;37.67;35.67;;;;;15.13;77.55;-19614.50;4896581;28;45696;-87
2023/01/06 10:42:54;;;;;;;;;35.33;34.33;;;;;15.14;77.53;-19614.91;4900643;28;45464;-87
2023/01/06 10:45:21;;;;;;;;;33.67;33.00;;;;;15.02;77.64;-19611.69;4912665;28;45578;-87
2023/01/06 10:47:46;;;;;;;;;31.00;30.67;;;;;14.03;78.27;-19585.63;4888978;28;46174;-88
2023/01/06 10:50:16;;;;;;;;;30.00;30.00;;;;;15.13;77.90;-19614.50;4916667;28;45296;-89
2023/01/06 10:52:43;;;;;;;;;28.33;26.67;;;;;14.62;77.97;-19601.06;4896477;28;45294;-88
2023/01/06 10:55:24;;;;;;;;;34.00;32.33;;;;;15.22;78.09;-19616.91;4913413;28;45497;-88
2023/01/06 10:57:52;;;;;;;;;34.33;33.67;;;;;14.57;77.95;-19599.88;4912928;28;45514;-88
2023/01/06 11:00:23;;;;;;;;;29.67;29.67;;;;;15.40;77.60;-19621.75;4896121;28;45483;-88
2023/01/06 11:02:52;;;;;;;;;25.50;25.00;;;;;15.61;77.19;-19627.09;4909125;28;45946;-88
2023/01/06 11:05:25;;;;;;;;;28.25;25.25;;;;;15.06;76.78;-19612.63;4915538;28;46528;-87
2023/01/06 11:08:13;;;;;;;;;31.33;31.33;;;;;15.74;76.59;-19630.47;4914410;28;45341;-87
2023/01/06 11:10:52;;;;;;;;;27.33;27.33;;;;;15.78;76.09;-19631.66;4897600;28;45414;-88
2023/01/06 11:13:38;;;;;;;;;29.33;29.33;;;;;15.73;75.97;-19630.19;4922198;28;45332;-88
2023/01/06 11:16:16;;;;;;;;;26.25;26.00;;;;;15.62;76.27;-19627.50;4902485;28;48671;-87
2023/01/06 11:18:42;;;;;;;;;21.50;21.50;;;;;15.41;75.28;-19622.00;4907777;28;45613;-87
2023/01/06 11:21:09;;;;;;;;;27.67;27.67;;;;;15.83;75.46;-19633.00;4900404;28;46392;-87
2023/01/06 11:23:36;;;;;;;;;35.33;31.67;;;;;15.80;75.54;-19632.06;4916961;28;45581;-88
2023/01/06 11:26:01;;;;;;;;;28.25;27.00;;;;;15.80;75.91;-19632.06;4897476;28;46459;-87
2023/01/06 11:28:26;;;;;;;;;27.67;27.67;;;;;15.70;75.84;-19629.38;4911145;28;45543;-87
2023/01/06 11:31:09;;;;;;;;;26.75;26.75;;;;;15.37;76.15;-19620.94;4913843;28;45563;-87
2023/01/06 11:33:44;;;;;;;;;26.00;26.00;;;;;15.75;76.09;-19630.88;4920861;28;45494;-88
2023/01/06 11:36:13;;;;;;;;;27.00;26.75;;;;;15.74;76.17;-19630.47;4917684;28;47130;-87
2023/01/06 11:38:44;;;;;;;;;28.33;26.33;;;;;15.75;75.91;-19630.88;4916575;28;45541;-88
2023/01/06 11:41:12;;;;;;;;;26.25;26.25;;;;;15.77;75.67;-19631.41;4934554;28;45540;-89
2023/01/06 11:43:43;;;;;;;;;28.00;25.75;;;;;15.06;76.36;-19612.63;4935595;28;45565;-88
2023/01/06 11:46:13;;;;;;;;;27.25;27.25;;;;;15.53;75.80;-19624.97;4938329;28;47393;-91
2023/01/06 11:48:47;;;;;;;;;26.25;25.25;;;;;15.82;76.07;-19632.59;4916711;28;45565;-90
2023/01/06 11:51:13;;;;;;;;;29.25;29.00;;;;;15.83;75.69;-19632.88;4923211;28;46080;-86
2023/01/06 11:53:53;;;;;;;;;29.67;29.33;;;;;15.81;75.68;-19632.34;4920023;28;45605;-89
2023/01/06 11:56:18;;;;;;;;;29.33;27.67;;;;;15.51;75.72;-19624.44;4932245;28;46581;-88
2023/01/06 11:59:11;;;;;;;;;32.50;30.75;;;;;15.84;75.73;-19633.16;4939308;28;45369;-88
2023/01/06 12:01:58;;;;;;;;;31.75;31.25;;;;;15.72;75.42;-19630.06;4940719;28;45446;-89
2023/01/06 12:04:34;;;;;;;;;29.33;29.33;;;;;15.52;75.48;-19624.69;4929389;28;45420;-88
2023/01/06 12:07:15;;;;;;;;;35.00;34.00;;;;;15.73;75.40;-19630.34;4915599;28;47541;-87
2023/01/06 12:09:45;;;;;;;;;36.00;34.33;;;;;15.04;75.74;-19612.22;4943014;28;45492;-89